Weather at Vancouver International Airport

Public forecast

Using degrees Celsius for public forecast. Weather courtesy of forecast.io.

Current aviation weather report (METAR) for Vancouver International Airport

Retrieved 2021/01/28 07:24 UTC (31 minutes ago):

CYVR 280724Z 04007KT 20SM -RA BKN033 OVC078 04/01 A2965 RMK SC7AC1 SLP042

Aviation forecast (TAF) for Vancouver International Airport

Retrieved 2021/01/28 09:39 UTC (0 seconds ago):

TAF CYVR 280838Z 2809/2912 03008KT P6SM SCT040 OVC060 TEMPO 2809/2816 P6SM -SHRA BKN040 OVC060 BECMG 2810/2812 VRB03KT FM281600 VRB03KT P6SM SCT030 OVC050 TEMPO 2816/2822 P6SM -SHRA BKN030 OVC050 BECMG 2820/2822 30008KT FM282200 30008KT P6SM SCT012 OVC030 TEMPO 2822/2904 P6SM -SHRA OVC012 BECMG 2902/2904 VRB03KT FM290400 VRB03KT P6SM SCT006 OVC012 TEMPO 2904/2912 P6SM -RA FEW006 SCT015 OVC025 RMK NXT FCST BY 281200Z